sensor_id;sensor_type;location;lat;lon;timestamp;temperature;humidity
3067;DHT22;1544;48.834;9.194;2023-05-07T00:00:55;15.80;43.30
3067;DHT22;1544;48.834;9.194;2023-05-07T00:03:31;15.80;43.30
3067;DHT22;1544;48.834;9.194;2023-05-07T00:06:07;15.80;43.30
3067;DHT22;1544;48.834;9.194;2023-05-07T00:08:43;15.80;43.40
3067;DHT22;1544;48.834;9.194;2023-05-07T00:11:20;15.80;43.60
3067;DHT22;1544;48.834;9.194;2023-05-07T00:13:56;15.70;43.50
3067;DHT22;1544;48.834;9.194;2023-05-07T00:16:32;15.70;43.60
3067;DHT22;1544;48.834;9.194;2023-05-07T00:19:08;15.70;43.80
3067;DHT22;1544;48.834;9.194;2023-05-07T00:21:44;15.70;43.90
3067;DHT22;1544;48.834;9.194;2023-05-07T00:24:19;15.70;43.90
3067;DHT22;1544;48.834;9.194;2023-05-07T00:26:55;15.70;43.90
3067;DHT22;1544;48.834;9.194;2023-05-07T00:29:33;15.60;44.10
3067;DHT22;1544;48.834;9.194;2023-05-07T00:32:09;15.60;44.20
3067;DHT22;1544;48.834;9.194;2023-05-07T00:34:45;15.60;44.20
3067;DHT22;1544;48.834;9.194;2023-05-07T00:37:21;15.50;44.40
3067;DHT22;1544;48.834;9.194;2023-05-07T00:39:58;15.50;44.60
3067;DHT22;1544;48.834;9.194;2023-05-07T00:42:34;15.40;44.80
3067;DHT22;1544;48.834;9.194;2023-05-07T00:45:10;15.40;45.10
3067;DHT22;1544;48.834;9.194;2023-05-07T00:47:46;15.40;45.50
3067;DHT22;1544;48.834;9.194;2023-05-07T00:50:22;15.40;45.60
3067;DHT22;1544;48.834;9.194;2023-05-07T00:52:58;15.30;45.60
3067;DHT22;1544;48.834;9.194;2023-05-07T00:55:35;15.30;45.80
3067;DHT22;1544;48.834;9.194;2023-05-07T00:58:12;15.20;45.90
3067;DHT22;1544;48.834;9.194;2023-05-07T01:00:48;15.20;46.10
3067;DHT22;1544;48.834;9.194;2023-05-07T01:03:24;15.20;46.30
3067;DHT22;1544;48.834;9.194;2023-05-07T01:06:01;15.10;46.30
3067;DHT22;1544;48.834;9.194;2023-05-07T01:08:39;15.10;46.40
3067;DHT22;1544;48.834;9.194;2023-05-07T01:11:17;15.10;46.50
3067;DHT22;1544;48.834;9.194;2023-05-07T01:13:54;15.00;46.60
3067;DHT22;1544;48.834;9.194;2023-05-07T01:16:31;15.00;46.70
3067;DHT22;1544;48.834;9.194;2023-05-07T01:19:09;14.90;46.80
3067;DHT22;1544;48.834;9.194;2023-05-07T01:21:49;14.90;47.20
3067;DHT22;1544;48.834;9.194;2023-05-07T01:24:31;14.90;47.40
3067;DHT22;1544;48.834;9.194;2023-05-07T01:27:07;14.90;47.70
3067;DHT22;1544;48.834;9.194;2023-05-07T01:29:45;14.80;47.80
3067;DHT22;1544;48.834;9.194;2023-05-07T01:32:40;14.80;48.00
3067;DHT22;1544;48.834;9.194;2023-05-07T01:35:22;14.80;48.30
3067;DHT22;1544;48.834;9.194;2023-05-07T01:38:01;14.80;48.50
3067;DHT22;1544;48.834;9.194;2023-05-07T01:40:40;14.80;48.70
3067;DHT22;1544;48.834;9.194;2023-05-07T01:43:16;14.80;48.90
3067;DHT22;1544;48.834;9.194;2023-05-07T01:45:52;14.80;49.00
3067;DHT22;1544;48.834;9.194;2023-05-07T01:48:29;14.80;48.90
3067;DHT22;1544;48.834;9.194;2023-05-07T01:51:05;14.70;48.80
3067;DHT22;1544;48.834;9.194;2023-05-07T01:53:41;14.70;49.00
3067;DHT22;1544;48.834;9.194;2023-05-07T01:56:19;14.70;49.10
3067;DHT22;1544;48.834;9.194;2023-05-07T01:58:56;14.70;49.30
3067;DHT22;1544;48.834;9.194;2023-05-07T02:01:32;14.70;49.50
3067;DHT22;1544;48.834;9.194;2023-05-07T02:04:08;14.70;49.70
3067;DHT22;1544;48.834;9.194;2023-05-07T02:06:44;14.60;49.90
3067;DHT22;1544;48.834;9.194;2023-05-07T02:09:21;14.60;50.30
3067;DHT22;1544;48.834;9.194;2023-05-07T02:11:59;14.60;50.30
3067;DHT22;1544;48.834;9.194;2023-05-07T02:14:35;14.60;50.40
3067;DHT22;1544;48.834;9.194;2023-05-07T02:17:11;14.60;50.40
3067;DHT22;1544;48.834;9.194;2023-05-07T02:19:47;14.60;50.50
3067;DHT22;1544;48.834;9.194;2023-05-07T02:22:23;14.70;50.40
3067;DHT22;1544;48.834;9.194;2023-05-07T02:24:59;14.70;50.30
3067;DHT22;1544;48.834;9.194;2023-05-07T02:27:35;14.60;50.10
3067;DHT22;1544;48.834;9.194;2023-05-07T02:30:13;14.60;50.00
3067;DHT22;1544;48.834;9.194;2023-05-07T02:32:50;14.60;50.00
3067;DHT22;1544;48.834;9.194;2023-05-07T02:35:26;14.60;50.20
3067;DHT22;1544;48.834;9.194;2023-05-07T02:38:02;14.50;50.40
3067;DHT22;1544;48.834;9.194;2023-05-07T02:40:39;14.50;50.70
3067;DHT22;1544;48.834;9.194;2023-05-07T02:43:15;14.40;51.00
3067;DHT22;1544;48.834;9.194;2023-05-07T02:46:06;14.40;51.10
3067;DHT22;1544;48.834;9.194;2023-05-07T02:48:46;14.30;51.20
3067;DHT22;1544;48.834;9.194;2023-05-07T02:51:22;14.30;51.40
3067;DHT22;1544;48.834;9.194;2023-05-07T02:54:02;14.30;51.60
3067;DHT22;1544;48.834;9.194;2023-05-07T02:56:39;14.20;51.90
3067;DHT22;1544;48.834;9.194;2023-05-07T02:59:15;14.20;52.00
3067;DHT22;1544;48.834;9.194;2023-05-07T03:01:51;14.10;52.20
3067;DHT22;1544;48.834;9.194;2023-05-07T03:04:27;14.10;52.40
3067;DHT22;1544;48.834;9.194;2023-05-07T03:07:03;14.10;52.70
3067;DHT22;1544;48.834;9.194;2023-05-07T03:09:39;14.00;52.90
3067;DHT22;1544;48.834;9.194;2023-05-07T03:12:15;14.00;53.10
3067;DHT22;1544;48.834;9.194;2023-05-07T03:14:51;13.90;53.20
3067;DHT22;1544;48.834;9.194;2023-05-07T03:17:27;13.90;53.40
3067;DHT22;1544;48.834;9.194;2023-05-07T03:20:03;13.90;53.50
3067;DHT22;1544;48.834;9.194;2023-05-07T03:22:40;13.80;53.70
3067;DHT22;1544;48.834;9.194;2023-05-07T03:25:16;13.70;53.90
3067;DHT22;1544;48.834;9.194;2023-05-07T03:27:52;13.70;54.10
3067;DHT22;1544;48.834;9.194;2023-05-07T03:30:31;13.70;54.30
3067;DHT22;1544;48.834;9.194;2023-05-07T03:33:07;13.60;54.50
3067;DHT22;1544;48.834;9.194;2023-05-07T03:35:44;13.60;54.90
3067;DHT22;1544;48.834;9.194;2023-05-07T03:38:26;13.60;55.10
3067;DHT22;1544;48.834;9.194;2023-05-07T03:41:02;13.50;55.30
3067;DHT22;1544;48.834;9.194;2023-05-07T03:43:39;13.50;55.70
3067;DHT22;1544;48.834;9.194;2023-05-07T03:46:18;13.50;55.70
3067;DHT22;1544;48.834;9.194;2023-05-07T03:48:54;13.40;55.90
3067;DHT22;1544;48.834;9.194;2023-05-07T03:51:30;13.40;56.10
3067;DHT22;1544;48.834;9.194;2023-05-07T03:54:06;13.40;56.10
3067;DHT22;1544;48.834;9.194;2023-05-07T03:56:42;13.40;56.30
3067;DHT22;1544;48.834;9.194;2023-05-07T03:59:18;13.40;56.50
3067;DHT22;1544;48.834;9.194;2023-05-07T04:01:56;13.30;56.70
3067;DHT22;1544;48.834;9.194;2023-05-07T04:04:33;13.30;56.90
3067;DHT22;1544;48.834;9.194;2023-05-07T04:07:09;13.30;57.00
3067;DHT22;1544;48.834;9.194;2023-05-07T04:09:50;13.30;57.10
3067;DHT22;1544;48.834;9.194;2023-05-07T04:12:25;13.30;57.00
3067;DHT22;1544;48.834;9.194;2023-05-07T04:15:01;13.20;57.10
3067;DHT22;1544;48.834;9.194;2023-05-07T04:17:38;13.20;57.10
3067;DHT22;1544;48.834;9.194;2023-05-07T04:20:16;13.30;57.20
3067;DHT22;1544;48.834;9.194;2023-05-07T04:22:56;13.20;57.10
3067;DHT22;1544;48.834;9.194;2023-05-07T04:25:33;13.20;57.30
3067;DHT22;1544;48.834;9.194;2023-05-07T04:28:16;13.30;57.60
3067;DHT22;1544;48.834;9.194;2023-05-07T04:30:52;13.30;57.70
3067;DHT22;1544;48.834;9.194;2023-05-07T04:33:29;13.30;57.70
3067;DHT22;1544;48.834;9.194;2023-05-07T04:36:06;13.30;57.80
3067;DHT22;1544;48.834;9.194;2023-05-07T04:38:49;13.40;57.80
3067;DHT22;1544;48.834;9.194;2023-05-07T04:41:27;13.40;57.90
3067;DHT22;1544;48.834;9.194;2023-05-07T04:44:03;13.50;57.80
3067;DHT22;1544;48.834;9.194;2023-05-07T04:46:40;13.50;57.50
3067;DHT22;1544;48.834;9.194;2023-05-07T04:49:16;13.50;57.20
3067;DHT22;1544;48.834;9.194;2023-05-07T04:51:52;13.60;57.10
3067;DHT22;1544;48.834;9.194;2023-05-07T04:54:30;13.60;57.20
3067;DHT22;1544;48.834;9.194;2023-05-07T04:57:06;13.70;57.50
3067;DHT22;1544;48.834;9.194;2023-05-07T04:59:43;13.70;57.70
3067;DHT22;1544;48.834;9.194;2023-05-07T05:02:19;13.70;58.00
3067;DHT22;1544;48.834;9.194;2023-05-07T05:04:56;13.70;58.20
3067;DHT22;1544;48.834;9.194;2023-05-07T05:07:32;13.80;58.40
3067;DHT22;1544;48.834;9.194;2023-05-07T05:10:08;13.80;58.20
3067;DHT22;1544;48.834;9.194;2023-05-07T05:12:47;13.80;57.70
3067;DHT22;1544;48.834;9.194;2023-05-07T05:15:23;13.80;58.00
3067;DHT22;1544;48.834;9.194;2023-05-07T05:18:00;13.90;57.90
3067;DHT22;1544;48.834;9.194;2023-05-07T05:20:36;13.90;57.60
3067;DHT22;1544;48.834;9.194;2023-05-07T05:23:13;13.90;57.40
3067;DHT22;1544;48.834;9.194;2023-05-07T05:26:07;14.00;57.20
3067;DHT22;1544;48.834;9.194;2023-05-07T05:28:44;14.70;57.40
3067;DHT22;1544;48.834;9.194;2023-05-07T05:31:20;14.10;56.40
3067;DHT22;1544;48.834;9.194;2023-05-07T05:33:58;14.20;56.40
3067;DHT22;1544;48.834;9.194;2023-05-07T05:36:34;14.30;55.90
3067;DHT22;1544;48.834;9.194;2023-05-07T05:39:10;14.40;55.40
3067;DHT22;1544;48.834;9.194;2023-05-07T05:41:47;14.50;54.70
3067;DHT22;1544;48.834;9.194;2023-05-07T05:44:23;14.60;54.20
3067;DHT22;1544;48.834;9.194;2023-05-07T05:46:59;14.70;53.70
3067;DHT22;1544;48.834;9.194;2023-05-07T05:49:36;14.80;53.30
3067;DHT22;1544;48.834;9.194;2023-05-07T05:52:20;14.80;52.80
3067;DHT22;1544;48.834;9.194;2023-05-07T05:55:00;14.90;52.40
3067;DHT22;1544;48.834;9.194;2023-05-07T05:57:36;15.00;52.30
3067;DHT22;1544;48.834;9.194;2023-05-07T06:00:12;15.00;52.30
3067;DHT22;1544;48.834;9.194;2023-05-07T06:02:55;15.20;52.10
3067;DHT22;1544;48.834;9.194;2023-05-07T06:05:33;15.40;51.10
3067;DHT22;1544;48.834;9.194;2023-05-07T06:08:09;15.60;50.80
3067;DHT22;1544;48.834;9.194;2023-05-07T06:10:45;15.80;50.20
3067;DHT22;1544;48.834;9.194;2023-05-07T06:13:21;16.00;49.40
3067;DHT22;1544;48.834;9.194;2023-05-07T06:15:59;16.20;48.50
3067;DHT22;1544;48.834;9.194;2023-05-07T06:18:35;16.30;47.60
3067;DHT22;1544;48.834;9.194;2023-05-07T06:21:14;16.50;46.90
3067;DHT22;1544;48.834;9.194;2023-05-07T06:23:53;16.60;46.40
3067;DHT22;1544;48.834;9.194;2023-05-07T06:26:30;16.60;45.70
3067;DHT22;1544;48.834;9.194;2023-05-07T06:29:06;16.60;45.40
3067;DHT22;1544;48.834;9.194;2023-05-07T06:31:42;16.60;45.10
3067;DHT22;1544;48.834;9.194;2023-05-07T06:34:19;16.60;45.30
3067;DHT22;1544;48.834;9.194;2023-05-07T06:36:55;16.60;44.80
3067;DHT22;1544;48.834;9.194;2023-05-07T06:39:45;16.60;44.70
3067;DHT22;1544;48.834;9.194;2023-05-07T06:42:21;16.60;44.70
3067;DHT22;1544;48.834;9.194;2023-05-07T06:44:58;16.60;44.40
3067;DHT22;1544;48.834;9.194;2023-05-07T06:47:37;16.60;44.20
3067;DHT22;1544;48.834;9.194;2023-05-07T06:50:13;16.60;44.30
3067;DHT22;1544;48.834;9.194;2023-05-07T06:52:52;16.60;44.20
3067;DHT22;1544;48.834;9.194;2023-05-07T06:55:28;16.70;44.30
3067;DHT22;1544;48.834;9.194;2023-05-07T06:58:04;16.70;44.10
3067;DHT22;1544;48.834;9.194;2023-05-07T07:00:48;16.80;44.00
3067;DHT22;1544;48.834;9.194;2023-05-07T07:03:30;16.90;44.00
3067;DHT22;1544;48.834;9.194;2023-05-07T07:06:14;16.90;44.00
3067;DHT22;1544;48.834;9.194;2023-05-07T07:08:50;17.00;43.90
3067;DHT22;1544;48.834;9.194;2023-05-07T07:11:28;17.10;43.60
3067;DHT22;1544;48.834;9.194;2023-05-07T07:14:05;17.20;43.60
3067;DHT22;1544;48.834;9.194;2023-05-07T07:16:45;17.40;43.30
3067;DHT22;1544;48.834;9.194;2023-05-07T07:19:24;17.50;43.10
3067;DHT22;1544;48.834;9.194;2023-05-07T07:22:02;17.60;42.90
3067;DHT22;1544;48.834;9.194;2023-05-07T07:24:39;17.80;42.80
3067;DHT22;1544;48.834;9.194;2023-05-07T07:27:17;17.90;42.50
3067;DHT22;1544;48.834;9.194;2023-05-07T07:29:53;18.00;42.20
3067;DHT22;1544;48.834;9.194;2023-05-07T07:32:30;18.20;41.90
3067;DHT22;1544;48.834;9.194;2023-05-07T07:35:09;18.50;41.80
3067;DHT22;1544;48.834;9.194;2023-05-07T07:37:57;18.70;41.30
3067;DHT22;1544;48.834;9.194;2023-05-07T07:40:39;19.10;40.80
3067;DHT22;1544;48.834;9.194;2023-05-07T07:43:19;19.40;40.50
3067;DHT22;1544;48.834;9.194;2023-05-07T07:45:56;19.80;40.20
3067;DHT22;1544;48.834;9.194;2023-05-07T07:48:33;20.00;39.60
3067;DHT22;1544;48.834;9.194;2023-05-07T07:51:12;20.20;38.80
3067;DHT22;1544;48.834;9.194;2023-05-07T07:53:49;20.40;38.70
3067;DHT22;1544;48.834;9.194;2023-05-07T07:56:26;20.50;38.20
3067;DHT22;1544;48.834;9.194;2023-05-07T07:59:02;20.60;37.80
3067;DHT22;1544;48.834;9.194;2023-05-07T08:01:40;20.80;37.80
3067;DHT22;1544;48.834;9.194;2023-05-07T08:04:16;21.10;37.80
3067;DHT22;1544;48.834;9.194;2023-05-07T08:06:53;21.30;37.60
3067;DHT22;1544;48.834;9.194;2023-05-07T08:09:30;21.40;37.40
3067;DHT22;1544;48.834;9.194;2023-05-07T08:12:08;21.60;37.10
3067;DHT22;1544;48.834;9.194;2023-05-07T08:14:51;21.70;36.90
3067;DHT22;1544;48.834;9.194;2023-05-07T08:17:27;21.90;36.90
3067;DHT22;1544;48.834;9.194;2023-05-07T08:20:05;22.10;36.70
3067;DHT22;1544;48.834;9.194;2023-05-07T08:22:43;22.20;36.30
3067;DHT22;1544;48.834;9.194;2023-05-07T08:25:19;22.40;36.40
3067;DHT22;1544;48.834;9.194;2023-05-07T08:27:55;22.50;36.30
3067;DHT22;1544;48.834;9.194;2023-05-07T08:30:32;22.50;35.90
3067;DHT22;1544;48.834;9.194;2023-05-07T08:33:09;22.60;35.60
3067;DHT22;1544;48.834;9.194;2023-05-07T08:35:45;22.50;35.40
3067;DHT22;1544;48.834;9.194;2023-05-07T08:38:22;22.50;35.20
3067;DHT22;1544;48.834;9.194;2023-05-07T08:40:59;22.60;35.30
3067;DHT22;1544;48.834;9.194;2023-05-07T08:43:38;22.60;35.40
3067;DHT22;1544;48.834;9.194;2023-05-07T08:46:18;22.60;35.60
3067;DHT22;1544;48.834;9.194;2023-05-07T08:49:01;22.60;35.60
3067;DHT22;1544;48.834;9.194;2023-05-07T08:51:38;22.60;35.50
3067;DHT22;1544;48.834;9.194;2023-05-07T08:54:18;22.60;35.60
3067;DHT22;1544;48.834;9.194;2023-05-07T08:56:55;22.60;35.70
3067;DHT22;1544;48.834;9.194;2023-05-07T08:59:32;22.60;35.70
3067;DHT22;1544;48.834;9.194;2023-05-07T09:02:09;22.80;35.60
3067;DHT22;1544;48.834;9.194;2023-05-07T09:04:46;22.90;35.30
3067;DHT22;1544;48.834;9.194;2023-05-07T09:07:22;22.90;35.20
3067;DHT22;1544;48.834;9.194;2023-05-07T09:10:02;23.10;35.30
3067;DHT22;1544;48.834;9.194;2023-05-07T09:12:40;23.20;35.20
3067;DHT22;1544;48.834;9.194;2023-05-07T09:15:18;23.40;35.10
3067;DHT22;1544;48.834;9.194;2023-05-07T09:17:59;23.40;34.50
3067;DHT22;1544;48.834;9.194;2023-05-07T09:20:39;23.50;34.60
3067;DHT22;1544;48.834;9.194;2023-05-07T09:23:20;23.70;34.60
3067;DHT22;1544;48.834;9.194;2023-05-07T09:26:00;23.70;34.60
3067;DHT22;1544;48.834;9.194;2023-05-07T09:28:41;23.60;33.40
3067;DHT22;1544;48.834;9.194;2023-05-07T09:31:20;23.80;34.00
3067;DHT22;1544;48.834;9.194;2023-05-07T09:34:01;23.90;34.40
3067;DHT22;1544;48.834;9.194;2023-05-07T09:36:40;23.90;34.30
3067;DHT22;1544;48.834;9.194;2023-05-07T09:39:16;23.90;34.40
3067;DHT22;1544;48.834;9.194;2023-05-07T09:41:52;23.90;34.30
3067;DHT22;1544;48.834;9.194;2023-05-07T09:44:47;24.00;34.20
3067;DHT22;1544;48.834;9.194;2023-05-07T09:47:32;24.00;34.10
3067;DHT22;1544;48.834;9.194;2023-05-07T09:50:18;24.10;34.40
3067;DHT22;1544;48.834;9.194;2023-05-07T09:52:56;24.00;34.30
3067;DHT22;1544;48.834;9.194;2023-05-07T09:55:34;24.10;34.30
3067;DHT22;1544;48.834;9.194;2023-05-07T09:58:12;24.20;34.10
3067;DHT22;1544;48.834;9.194;2023-05-07T10:00:49;24.30;34.20
3067;DHT22;1544;48.834;9.194;2023-05-07T10:03:27;24.50;34.40
3067;DHT22;1544;48.834;9.194;2023-05-07T10:06:12;24.50;33.40
3067;DHT22;1544;48.834;9.194;2023-05-07T10:08:49;24.60;33.20
3067;DHT22;1544;48.834;9.194;2023-05-07T10:11:26;24.80;33.40
3067;DHT22;1544;48.834;9.194;2023-05-07T10:14:07;24.90;33.40
3067;DHT22;1544;48.834;9.194;2023-05-07T10:16:47;25.10;33.20
3067;DHT22;1544;48.834;9.194;2023-05-07T10:19:25;25.20;32.90
3067;DHT22;1544;48.834;9.194;2023-05-07T10:22:05;25.40;32.80
3067;DHT22;1544;48.834;9.194;2023-05-07T10:24:49;25.60;32.30
3067;DHT22;1544;48.834;9.194;2023-05-07T10:27:30;25.70;32.20
3067;DHT22;1544;48.834;9.194;2023-05-07T10:33:01;26.20;32.30
3067;DHT22;1544;48.834;9.194;2023-05-07T10:35:45;26.30;31.30
3067;DHT22;1544;48.834;9.194;2023-05-07T10:38:24;26.40;30.80
3067;DHT22;1544;48.834;9.194;2023-05-07T10:41:01;26.60;31.00
3067;DHT22;1544;48.834;9.194;2023-05-07T10:43:44;26.80;31.00
3067;DHT22;1544;48.834;9.194;2023-05-07T10:46:35;27.10;31.30
3067;DHT22;1544;48.834;9.194;2023-05-07T10:49:18;27.40;31.40
3067;DHT22;1544;48.834;9.194;2023-05-07T10:52:17;27.60;31.10
3067;DHT22;1544;48.834;9.194;2023-05-07T10:58:27;27.80;30.80
3067;DHT22;1544;48.834;9.194;2023-05-07T11:01:50;27.90;31.40
3067;DHT22;1544;48.834;9.194;2023-05-07T11:04:39;28.10;30.90
3067;DHT22;1544;48.834;9.194;2023-05-07T11:07:27;28.20;30.60
3067;DHT22;1544;48.834;9.194;2023-05-07T11:10:09;28.20;30.50
3067;DHT22;1544;48.834;9.194;2023-05-07T11:12:55;28.20;30.50
3067;DHT22;1544;48.834;9.194;2023-05-07T11:15:47;28.20;30.60
3067;DHT22;1544;48.834;9.194;2023-05-07T11:18:50;28.10;30.40
3067;DHT22;1544;48.834;9.194;2023-05-07T11:21:35;28.10;30.80
3067;DHT22;1544;48.834;9.194;2023-05-07T11:24:42;28.00;30.70
3067;DHT22;1544;48.834;9.194;2023-05-07T11:27:26;27.90;30.80
3067;DHT22;1544;48.834;9.194;2023-05-07T11:30:04;27.90;30.70
3067;DHT22;1544;48.834;9.194;2023-05-07T11:32:41;27.90;30.90
3067;DHT22;1544;48.834;9.194;2023-05-07T11:35:17;27.80;30.80
3067;DHT22;1544;48.834;9.194;2023-05-07T11:38:00;27.80;30.80
3067;DHT22;1544;48.834;9.194;2023-05-07T11:40:49;27.70;30.80
3067;DHT22;1544;48.834;9.194;2023-05-07T11:43:32;27.80;30.90
3067;DHT22;1544;48.834;9.194;2023-05-07T11:46:09;27.70;30.50
3067;DHT22;1544;48.834;9.194;2023-05-07T11:48:47;27.60;30.80
3067;DHT22;1544;48.834;9.194;2023-05-07T11:51:24;27.60;30.90
3067;DHT22;1544;48.834;9.194;2023-05-07T11:54:03;27.60;30.80
3067;DHT22;1544;48.834;9.194;2023-05-07T11:56:40;27.60;30.40
3067;DHT22;1544;48.834;9.194;2023-05-07T11:59:19;27.50;30.20
3067;DHT22;1544;48.834;9.194;2023-05-07T12:01:58;27.40;30.30
3067;DHT22;1544;48.834;9.194;2023-05-07T12:04:38;27.30;30.70
3067;DHT22;1544;48.834;9.194;2023-05-07T12:07:15;27.20;30.00
3067;DHT22;1544;48.834;9.194;2023-05-07T12:09:52;27.10;30.00
3067;DHT22;1544;48.834;9.194;2023-05-07T12:12:28;27.00;29.90
3067;DHT22;1544;48.834;9.194;2023-05-07T12:15:08;26.90;29.90
3067;DHT22;1544;48.834;9.194;2023-05-07T12:17:45;26.80;30.00
3067;DHT22;1544;48.834;9.194;2023-05-07T12:20:21;26.70;30.00
3067;DHT22;1544;48.834;9.194;2023-05-07T12:22:58;26.60;30.00
3067;DHT22;1544;48.834;9.194;2023-05-07T12:25:41;26.50;30.30
3067;DHT22;1544;48.834;9.194;2023-05-07T12:28:22;26.50;30.50
3067;DHT22;1544;48.834;9.194;2023-05-07T12:30:58;26.40;30.40
3067;DHT22;1544;48.834;9.194;2023-05-07T12:33:35;26.30;30.30
3067;DHT22;1544;48.834;9.194;2023-05-07T12:36:13;26.20;30.50
3067;DHT22;1544;48.834;9.194;2023-05-07T12:38:49;26.10;31.70
3067;DHT22;1544;48.834;9.194;2023-05-07T12:41:25;25.90;32.30
3067;DHT22;1544;48.834;9.194;2023-05-07T12:44:04;25.70;33.40
3067;DHT22;1544;48.834;9.194;2023-05-07T12:46:41;25.50;33.50
3067;DHT22;1544;48.834;9.194;2023-05-07T12:49:17;25.10;34.30
3067;DHT22;1544;48.834;9.194;2023-05-07T12:51:54;24.80;35.40
3067;DHT22;1544;48.834;9.194;2023-05-07T12:54:34;24.60;36.10
3067;DHT22;1544;48.834;9.194;2023-05-07T12:57:13;24.30;37.30
3067;DHT22;1544;48.834;9.194;2023-05-07T12:59:49;23.90;38.50
3067;DHT22;1544;48.834;9.194;2023-05-07T13:02:33;23.70;38.20
3067;DHT22;1544;48.834;9.194;2023-05-07T13:05:10;23.40;38.70
3067;DHT22;1544;48.834;9.194;2023-05-07T13:07:56;23.10;40.20
3067;DHT22;1544;48.834;9.194;2023-05-07T13:10:32;22.80;40.10
3067;DHT22;1544;48.834;9.194;2023-05-07T13:13:09;22.60;42.00
3067;DHT22;1544;48.834;9.194;2023-05-07T13:15:51;22.30;41.60
3067;DHT22;1544;48.834;9.194;2023-05-07T13:18:29;22.10;40.20
3067;DHT22;1544;48.834;9.194;2023-05-07T13:21:06;21.90;39.60
3067;DHT22;1544;48.834;9.194;2023-05-07T13:23:43;21.70;38.30
3067;DHT22;1544;48.834;9.194;2023-05-07T13:26:19;21.50;38.70
3067;DHT22;1544;48.834;9.194;2023-05-07T13:29:02;21.30;40.40
3067;DHT22;1544;48.834;9.194;2023-05-07T13:31:38;21.00;40.20
3067;DHT22;1544;48.834;9.194;2023-05-07T13:34:21;20.70;40.30
3067;DHT22;1544;48.834;9.194;2023-05-07T13:36:57;20.50;40.60
3067;DHT22;1544;48.834;9.194;2023-05-07T13:39:33;20.30;42.80
3067;DHT22;1544;48.834;9.194;2023-05-07T13:42:12;20.00;44.90
3067;DHT22;1544;48.834;9.194;2023-05-07T13:44:51;19.90;47.20
3067;DHT22;1544;48.834;9.194;2023-05-07T13:47:27;19.80;47.60
3067;DHT22;1544;48.834;9.194;2023-05-07T13:50:03;19.70;47.90
3067;DHT22;1544;48.834;9.194;2023-05-07T13:52:41;19.60;47.20
3067;DHT22;1544;48.834;9.194;2023-05-07T13:55:23;19.60;44.70
3067;DHT22;1544;48.834;9.194;2023-05-07T13:58:01;19.60;45.00
3067;DHT22;1544;48.834;9.194;2023-05-07T14:00:42;19.60;45.10
3067;DHT22;1544;48.834;9.194;2023-05-07T14:03:18;19.60;44.50
3067;DHT22;1544;48.834;9.194;2023-05-07T14:05:55;19.60;44.70
3067;DHT22;1544;48.834;9.194;2023-05-07T14:08:33;19.50;45.20
3067;DHT22;1544;48.834;9.194;2023-05-07T14:11:09;19.60;45.80
3067;DHT22;1544;48.834;9.194;2023-05-07T14:13:45;19.50;45.90
3067;DHT22;1544;48.834;9.194;2023-05-07T14:16:21;19.50;45.80
3067;DHT22;1544;48.834;9.194;2023-05-07T14:18:58;19.80;46.00
3067;DHT22;1544;48.834;9.194;2023-05-07T14:21:34;19.30;44.00
3067;DHT22;1544;48.834;9.194;2023-05-07T14:24:10;19.20;44.40
3067;DHT22;1544;48.834;9.194;2023-05-07T14:26:47;19.20;44.20
3067;DHT22;1544;48.834;9.194;2023-05-07T14:29:23;19.10;44.20
3067;DHT22;1544;48.834;9.194;2023-05-07T14:31:59;19.00;45.10
3067;DHT22;1544;48.834;9.194;2023-05-07T14:34:35;20.20;47.30
3067;DHT22;1544;48.834;9.194;2023-05-07T14:37:12;18.80;46.50
3067;DHT22;1544;48.834;9.194;2023-05-07T14:39:48;18.70;46.20
3067;DHT22;1544;48.834;9.194;2023-05-07T14:42:25;18.70;47.10
3067;DHT22;1544;48.834;9.194;2023-05-07T14:45:02;18.70;46.10
3067;DHT22;1544;48.834;9.194;2023-05-07T14:47:38;18.70;47.20
3067;DHT22;1544;48.834;9.194;2023-05-07T14:50:14;18.70;48.40
3067;DHT22;1544;48.834;9.194;2023-05-07T14:52:50;18.70;48.10
3067;DHT22;1544;48.834;9.194;2023-05-07T14:55:26;18.80;49.00
3067;DHT22;1544;48.834;9.194;2023-05-07T14:58:01;18.80;49.30
3067;DHT22;1544;48.834;9.194;2023-05-07T15:00:38;18.80;48.20
3067;DHT22;1544;48.834;9.194;2023-05-07T15:03:14;18.80;49.50
3067;DHT22;1544;48.834;9.194;2023-05-07T15:05:52;18.90;49.90
3067;DHT22;1544;48.834;9.194;2023-05-07T15:08:28;18.90;50.20
3067;DHT22;1544;48.834;9.194;2023-05-07T15:11:07;19.10;51.10
3067;DHT22;1544;48.834;9.194;2023-05-07T15:13:43;19.10;50.90
3067;DHT22;1544;48.834;9.194;2023-05-07T15:16:20;19.20;51.70
3067;DHT22;1544;48.834;9.194;2023-05-07T15:18:56;19.30;52.10
3067;DHT22;1544;48.834;9.194;2023-05-07T15:21:32;19.30;52.60
3067;DHT22;1544;48.834;9.194;2023-05-07T15:24:10;19.40;53.20
3067;DHT22;1544;48.834;9.194;2023-05-07T15:26:46;19.50;53.60
3067;DHT22;1544;48.834;9.194;2023-05-07T15:29:22;19.60;53.90
3067;DHT22;1544;48.834;9.194;2023-05-07T15:31:58;19.70;53.60
3067;DHT22;1544;48.834;9.194;2023-05-07T15:34:34;19.80;53.00
3067;DHT22;1544;48.834;9.194;2023-05-07T15:37:10;19.90;52.50
3067;DHT22;1544;48.834;9.194;2023-05-07T15:39:46;20.00;52.00
3067;DHT22;1544;48.834;9.194;2023-05-07T15:42:22;20.10;51.40
3067;DHT22;1544;48.834;9.194;2023-05-07T15:44:58;20.10;51.30
3067;DHT22;1544;48.834;9.194;2023-05-07T15:47:36;20.20;51.10
3067;DHT22;1544;48.834;9.194;2023-05-07T15:50:12;20.20;50.60
3067;DHT22;1544;48.834;9.194;2023-05-07T15:52:49;20.20;50.40
3067;DHT22;1544;48.834;9.194;2023-05-07T15:55:26;20.20;50.70
3067;DHT22;1544;48.834;9.194;2023-05-07T15:58:03;20.20;50.80
3067;DHT22;1544;48.834;9.194;2023-05-07T16:00:41;20.10;51.10
3067;DHT22;1544;48.834;9.194;2023-05-07T16:03:17;20.10;51.50
3067;DHT22;1544;48.834;9.194;2023-05-07T16:05:54;20.10;51.90
3067;DHT22;1544;48.834;9.194;2023-05-07T16:08:35;20.00;52.40
3067;DHT22;1544;48.834;9.194;2023-05-07T16:11:11;20.00;52.90
3067;DHT22;1544;48.834;9.194;2023-05-07T16:13:47;19.90;53.70
3067;DHT22;1544;48.834;9.194;2023-05-07T16:16:23;19.90;54.30
3067;DHT22;1544;48.834;9.194;2023-05-07T16:19:01;19.80;54.80
3067;DHT22;1544;48.834;9.194;2023-05-07T16:21:37;19.80;56.00
3067;DHT22;1544;48.834;9.194;2023-05-07T16:24:14;19.80;56.50
3067;DHT22;1544;48.834;9.194;2023-05-07T16:26:49;19.80;56.60
3067;DHT22;1544;48.834;9.194;2023-05-07T16:29:25;19.70;57.00
3067;DHT22;1544;48.834;9.194;2023-05-07T16:32:01;19.70;56.60
3067;DHT22;1544;48.834;9.194;2023-05-07T16:34:37;19.70;55.70
3067;DHT22;1544;48.834;9.194;2023-05-07T16:37:13;19.60;55.40
3067;DHT22;1544;48.834;9.194;2023-05-07T16:39:49;19.60;54.90
3067;DHT22;1544;48.834;9.194;2023-05-07T16:42:26;19.60;54.60
3067;DHT22;1544;48.834;9.194;2023-05-07T16:45:03;19.70;54.00
3067;DHT22;1544;48.834;9.194;2023-05-07T16:47:39;19.60;55.10
3067;DHT22;1544;48.834;9.194;2023-05-07T16:50:16;19.50;55.80
3067;DHT22;1544;48.834;9.194;2023-05-07T16:52:52;19.50;56.90
3067;DHT22;1544;48.834;9.194;2023-05-07T16:55:28;19.50;57.00
3067;DHT22;1544;48.834;9.194;2023-05-07T16:58:12;19.50;57.50
3067;DHT22;1544;48.834;9.194;2023-05-07T17:00:49;19.40;58.60
3067;DHT22;1544;48.834;9.194;2023-05-07T17:03:26;19.40;58.80
3067;DHT22;1544;48.834;9.194;2023-05-07T17:06:03;19.50;59.10
3067;DHT22;1544;48.834;9.194;2023-05-07T17:08:42;19.50;59.30
3067;DHT22;1544;48.834;9.194;2023-05-07T17:11:19;19.50;59.70
3067;DHT22;1544;48.834;9.194;2023-05-07T17:13:55;19.60;59.60
3067;DHT22;1544;48.834;9.194;2023-05-07T17:16:32;19.60;58.00
3067;DHT22;1544;48.834;9.194;2023-05-07T17:19:07;19.70;55.90